Time;durP1;ratioP1;P1;durP2;ratioP2;P2;SDS_P1;SDS_P2;PMS_P1;PMS_P2;Temp;Humidity;BMP_temperature;BMP_pressure;BME280_temperature;BME280_humidity;BME280_pressure;Samples;Min_cycle;Max_cycle;Signal;HPM_P1;HPM_P2
2023/12/07 00:01:05;;;;;;;13.60;7.65;;;2.90;99.90;;;;;;4988523;28;20030;-76
2023/12/07 00:03:36;;;;;;;13.30;7.60;;;2.90;99.90;;;;;;4989008;28;20027;-76
2023/12/07 00:06:11;;;;;;;14.00;6.45;;;2.90;99.90;;;;;;4990088;28;20073;-76
2023/12/07 00:08:37;;;;;;;12.10;6.32;;;2.90;99.90;;;;;;4988045;28;20085;-75
2023/12/07 00:11:02;;;;;;;11.40;6.40;;;2.90;99.90;;;;;;4989375;28;20054;-75
2023/12/07 00:13:34;;;;;;;11.57;6.50;;;2.90;99.90;;;;;;4987880;28;20024;-75
2023/12/07 00:16:03;;;;;;;12.43;6.80;;;2.90;99.90;;;;;;4984051;28;20027;-75
2023/12/07 00:18:28;;;;;;;9.43;5.60;;;2.90;99.90;;;;;;4990575;28;20026;-75
2023/12/07 00:20:54;;;;;;;9.88;5.60;;;2.90;99.90;;;;;;4987000;28;20085;-75
2023/12/07 00:23:19;;;;;;;9.25;5.82;;;2.90;99.90;;;;;;4986379;28;20027;-75
2023/12/07 00:25:48;;;;;;;13.60;6.18;;;2.80;99.90;;;;;;4988120;28;20129;-74
2023/12/07 00:28:14;;;;;;;10.68;6.07;;;2.80;99.90;;;;;;4985564;28;20116;-74
2023/12/07 00:30:42;;;;;;;12.75;6.63;;;2.80;99.90;;;;;;4984334;28;20508;-74
2023/12/07 00:33:09;;;;;;;11.25;5.95;;;2.80;99.90;;;;;;4988425;28;20085;-75
2023/12/07 00:35:37;;;;;;;9.88;5.65;;;2.80;99.90;;;;;;4986488;28;20118;-75
2023/12/07 00:38:03;;;;;;;8.23;4.78;;;2.90;99.90;;;;;;4987385;28;20026;-75
2023/12/07 00:40:35;;;;;;;10.20;5.50;;;2.80;99.90;;;;;;4987717;28;20105;-76
2023/12/07 00:43:01;;;;;;;9.10;5.38;;;2.80;99.90;;;;;;4984101;28;20026;-76
2023/12/07 00:45:26;;;;;;;10.07;5.50;;;2.80;99.90;;;;;;4988696;28;20037;-76
2023/12/07 00:47:52;;;;;;;10.57;5.32;;;2.80;99.90;;;;;;4987077;28;20034;-76
2023/12/07 00:50:18;;;;;;;12.38;6.47;;;2.80;99.90;;;;;;4984189;28;20469;-76
2023/12/07 00:52:43;;;;;;;10.57;6.90;;;2.80;99.90;;;;;;4987984;28;20034;-77
2023/12/07 00:55:09;;;;;;;9.30;6.20;;;2.80;99.90;;;;;;4986266;28;20038;-76
2023/12/07 00:57:34;;;;;;;9.95;5.97;;;2.80;99.90;;;;;;4987253;28;20033;-76
2023/12/07 01:00:00;;;;;;;8.43;5.50;;;2.80;99.90;;;;;;4990455;28;20389;-76
2023/12/07 01:02:28;;;;;;;10.77;5.93;;;2.80;99.90;;;;;;4986442;28;20081;-76
2023/12/07 01:04:54;;;;;;;9.52;5.43;;;2.80;99.90;;;;;;4987199;28;20072;-76
2023/12/07 01:07:21;;;;;;;9.55;5.28;;;2.80;99.90;;;;;;4986167;28;20454;-76
2023/12/07 01:09:46;;;;;;;13.60;5.40;;;2.80;99.90;;;;;;4987333;28;20026;-76
2023/12/07 01:12:12;;;;;;;7.78;4.47;;;2.80;99.90;;;;;;4984961;28;20049;-76
2023/12/07 01:14:41;;;;;;;10.60;5.55;;;2.80;99.90;;;;;;4987685;28;20049;-76
2023/12/07 01:17:06;;;;;;;13.88;6.07;;;2.80;99.90;;;;;;4979843;28;20023;-77
2023/12/07 01:19:32;;;;;;;8.82;5.35;;;2.80;99.90;;;;;;4983518;28;20077;-76
2023/12/07 01:21:57;;;;;;;9.65;5.25;;;2.80;99.90;;;;;;4990387;28;20077;-76
2023/12/07 01:24:32;;;;;;;11.75;5.78;;;2.80;99.90;;;;;;4986472;28;20113;-77
2023/12/07 01:27:03;;;;;;;8.82;5.70;;;2.80;99.90;;;;;;4985415;28;20030;-76
2023/12/07 01:29:38;;;;;;;9.43;4.80;;;2.80;99.90;;;;;;4982117;28;20027;-76
2023/12/07 01:32:05;;;;;;;9.77;5.20;;;2.70;99.90;;;;;;4985175;28;20174;-76
2023/12/07 01:34:32;;;;;;;8.57;5.00;;;2.70;99.90;;;;;;4987611;28;20032;-76
2023/12/07 01:36:58;;;;;;;9.55;4.72;;;2.70;99.90;;;;;;4988725;28;20034;-76
2023/12/07 01:39:23;;;;;;;10.55;5.47;;;2.70;99.90;;;;;;4983766;28;20039;-77
2023/12/07 01:41:52;;;;;;;8.02;4.93;;;2.70;99.90;;;;;;4989342;28;20441;-77
2023/12/07 01:44:17;;;;;;;8.70;4.80;;;2.60;99.90;;;;;;4986317;28;20134;-76
2023/12/07 01:46:46;;;;;;;9.48;5.13;;;2.60;99.90;;;;;;4983502;28;20061;-76
2023/12/07 01:49:15;;;;;;;10.32;5.32;;;2.60;99.90;;;;;;4980314;28;20143;-75
2023/12/07 01:51:40;;;;;;;11.38;5.55;;;2.60;99.90;;;;;;4984802;28;20116;-75
2023/12/07 01:54:06;;;;;;;10.25;4.88;;;2.60;99.90;;;;;;4986506;28;20113;-75
2023/12/07 01:56:37;;;;;;;10.45;4.95;;;2.60;99.90;;;;;;4985646;28;20031;-76
2023/12/07 01:59:03;;;;;;;9.75;4.50;;;2.50;99.90;;;;;;4984536;28;20027;-75
2023/12/07 02:01:28;;;;;;;8.10;4.53;;;2.60;99.90;;;;;;4985045;28;20030;-76
2023/12/07 02:03:54;;;;;;;10.65;4.95;;;2.50;99.90;;;;;;4983430;28;20481;-76
2023/12/07 02:06:26;;;;;;;9.77;4.70;;;2.50;99.90;;;;;;4986223;28;20026;-76
2023/12/07 02:08:52;;;;;;;6.97;4.03;;;2.40;99.90;;;;;;4983252;28;20181;-76
2023/12/07 02:11:18;;;;;;;8.50;4.03;;;2.40;99.90;;;;;;4989016;28;20512;-76
2023/12/07 02:13:44;;;;;;;10.63;3.92;;;2.40;99.90;;;;;;4983747;28;20034;-76
2023/12/07 02:16:28;;;;;;;8.82;4.68;;;2.30;99.90;;;;;;4984157;28;20030;-77
2023/12/07 02:19:04;;;;;;;;;;;2.30;99.90;;;;;;4984223;28;20741;-76
2023/12/07 02:21:40;;;;;;;8.00;4.00;;;2.30;99.90;;;;;;4985988;28;19948;-76
2023/12/07 02:24:20;;;;;;;9.40;4.22;;;2.30;99.90;;;;;;4986167;28;20470;-77
2023/12/07 02:26:46;;;;;;;7.32;4.22;;;2.30;99.90;;;;;;4988815;28;20034;-77
2023/12/07 02:29:14;;;;;;;7.40;4.38;;;2.30;99.90;;;;;;4984854;28;20041;-76
2023/12/07 02:31:43;;;;;;;7.18;4.10;;;2.30;99.90;;;;;;4988771;28;20108;-76
2023/12/07 02:34:12;;;;;;;8.65;4.50;;;2.30;99.90;;;;;;4988036;28;20037;-76
2023/12/07 02:36:43;;;;;;;9.90;5.60;;;2.20;99.90;;;;;;4983793;28;20089;-76
2023/12/07 02:39:09;;;;;;;9.05;5.53;;;2.20;99.90;;;;;;4986628;28;20069;-76
2023/12/07 02:41:36;;;;;;;12.40;6.45;;;2.20;99.90;;;;;;4987317;28;20080;-76
2023/12/07 02:44:02;;;;;;;11.23;6.63;;;2.10;99.90;;;;;;4983688;28;20374;-76
2023/12/07 02:46:34;;;;;;;10.18;6.25;;;2.10;99.90;;;;;;4984953;28;20066;-75
2023/12/07 02:48:59;;;;;;;12.48;7.03;;;2.10;99.90;;;;;;4985024;28;20409;-75
2023/12/07 02:51:25;;;;;;;11.52;6.68;;;2.00;99.90;;;;;;4986380;28;20026;-76
2023/12/07 02:53:53;;;;;;;13.00;7.47;;;1.90;99.90;;;;;;4985604;28;20070;-76
2023/12/07 02:56:22;;;;;;;15.93;7.95;;;1.90;99.90;;;;;;4989207;28;20057;-75
2023/12/07 02:58:48;;;;;;;14.00;7.95;;;1.90;99.90;;;;;;4987507;28;20022;-75
2023/12/07 03:01:16;;;;;;;12.32;8.23;;;1.80;99.90;;;;;;4989866;28;20019;-76
2023/12/07 03:03:47;;;;;;;14.45;8.60;;;1.80;99.90;;;;;;4987938;28;20038;-76
2023/12/07 03:06:13;;;;;;;15.48;8.23;;;1.80;99.90;;;;;;4991909;28;20053;-76
2023/12/07 03:08:41;;;;;;;12.95;8.43;;;1.80;99.90;;;;;;4987270;28;20077;-75
2023/12/07 03:11:07;;;;;;;13.68;6.97;;;1.80;99.90;;;;;;4988719;28;20057;-75
2023/12/07 03:13:32;;;;;;;14.35;7.82;;;1.80;99.90;;;;;;4991157;28;20058;-76
2023/12/07 03:15:58;;;;;;;13.32;7.55;;;1.80;99.90;;;;;;4987668;28;20050;-76
2023/12/07 03:18:25;;;;;;;13.85;7.88;;;1.70;99.90;;;;;;4985793;28;20101;-76
2023/12/07 03:20:53;;;;;;;13.20;8.27;;;1.70;99.90;;;;;;4988045;28;20062;-75
2023/12/07 03:23:18;;;;;;;13.60;8.48;;;1.70;99.90;;;;;;4987545;28;20058;-75
2023/12/07 03:25:44;;;;;;;15.93;8.65;;;1.70;99.90;;;;;;4985639;28;20092;-76
2023/12/07 03:28:10;;;;;;;10.65;5.65;;;1.70;99.90;;;;;;4989030;28;20030;-76
2023/12/07 03:30:35;;;;;;;11.13;5.55;;;1.70;99.90;;;;;;4987935;28;20027;-75
2023/12/07 03:33:01;;;;;;;10.52;5.88;;;1.70;99.90;;;;;;4988766;28;20497;-75
2023/12/07 03:35:26;;;;;;;10.13;6.03;;;1.70;99.90;;;;;;4988039;28;20045;-74
2023/12/07 03:37:52;;;;;;;7.95;5.18;;;1.60;99.90;;;;;;4991217;28;20018;-76
2023/12/07 03:40:17;;;;;;;9.20;5.20;;;1.60;99.90;;;;;;4987910;28;20076;-76
2023/12/07 03:42:43;;;;;;;12.95;5.80;;;1.60;99.90;;;;;;4991740;28;20396;-76
2023/12/07 03:45:09;;;;;;;10.05;5.72;;;1.60;99.90;;;;;;5006626;23;20445;-71
2023/12/07 03:47:35;;;;;;;6.95;4.90;;;1.50;99.90;;;;;;5005190;28;20026;-71
2023/12/07 03:50:00;;;;;;;11.65;5.53;;;1.50;99.90;;;;;;5003578;28;20042;-72
2023/12/07 03:52:26;;;;;;;9.15;6.00;;;1.50;99.90;;;;;;5007960;28;20037;-71
2023/12/07 03:54:51;;;;;;;8.13;4.90;;;1.50;99.90;;;;;;5008507;28;20113;-72
2023/12/07 03:57:17;;;;;;;9.10;5.30;;;1.50;99.90;;;;;;5005430;28;20034;-71
2023/12/07 03:59:42;;;;;;;9.50;4.53;;;1.40;99.90;;;;;;5009497;28;20490;-73
2023/12/07 04:02:08;;;;;;;11.18;4.50;;;1.40;99.90;;;;;;5005139;28;20030;-72
2023/12/07 04:04:38;;;;;;;8.23;4.10;;;1.40;99.90;;;;;;5005156;28;20065;-72
2023/12/07 04:07:04;;;;;;;7.13;4.05;;;1.30;99.90;;;;;;5008172;28;20026;-72
2023/12/07 04:09:30;;;;;;;7.50;4.47;;;1.30;99.90;;;;;;5008976;28;20087;-72
2023/12/07 04:11:59;;;;;;;8.40;4.90;;;1.30;99.90;;;;;;5011333;28;20488;-73
2023/12/07 04:14:24;;;;;;;8.13;4.03;;;1.30;99.90;;;;;;5007995;28;20053;-72
2023/12/07 04:16:50;;;;;;;8.30;4.40;;;1.30;99.90;;;;;;5011346;28;20106;-72
2023/12/07 04:19:19;;;;;;;6.97;3.75;;;1.20;99.90;;;;;;5010161;28;20373;-72
2023/12/07 04:21:47;;;;;;;7.93;4.25;;;1.20;99.90;;;;;;5012912;28;20022;-72
2023/12/07 04:24:16;;;;;;;8.77;4.93;;;1.20;99.90;;;;;;5005817;28;20046;-71
2023/12/07 04:26:41;;;;;;;8.48;4.50;;;1.20;99.90;;;;;;5008413;28;20041;-71
2023/12/07 04:29:07;;;;;;;9.13;4.47;;;1.20;99.90;;;;;;5009631;28;20033;-71
2023/12/07 04:31:33;;;;;;;9.32;3.78;;;1.20;99.90;;;;;;5001237;28;20077;-71
2023/12/07 04:33:59;;;;;;;6.57;3.88;;;1.10;99.90;;;;;;5007362;28;20125;-71
2023/12/07 04:36:25;;;;;;;10.65;4.13;;;1.10;99.90;;;;;;4989010;28;20034;-71
2023/12/07 04:38:50;;;;;;;7.10;3.50;;;1.10;99.90;;;;;;5009742;28;20484;-71
2023/12/07 04:41:19;;;;;;;11.57;3.80;;;1.10;99.90;;;;;;5003109;28;20025;-71
2023/12/07 04:43:44;;;;;;;6.85;3.75;;;1.10;99.90;;;;;;4990523;28;20510;-71
2023/12/07 04:46:10;;;;;;;7.05;3.92;;;1.10;99.90;;;;;;5003089;28;20033;-71
2023/12/07 04:48:36;;;;;;;6.80;3.65;;;1.10;99.90;;;;;;5004056;28;20049;-72
2023/12/07 04:51:01;;;;;;;7.03;3.67;;;1.10;99.90;;;;;;5007584;28;20030;-71
2023/12/07 04:53:27;;;;;;;7.35;4.30;;;1.10;99.90;;;;;;5007242;28;20034;-72
2023/12/07 04:55:52;;;;;;;8.18;4.03;;;1.10;99.90;;;;;;5005174;28;20101;-71
2023/12/07 04:58:18;;;;;;;7.47;4.25;;;1.10;99.90;;;;;;5009204;28;20026;-71
2023/12/07 05:00:44;;;;;;;7.57;3.70;;;1.10;99.90;;;;;;5005514;28;20022;-71
2023/12/07 05:03:09;;;;;;;8.55;3.42;;;1.10;99.90;;;;;;5003859;28;20444;-71
2023/12/07 05:05:36;;;;;;;10.80;4.38;;;1.00;99.90;;;;;;5001533;28;20026;-72
2023/12/07 05:08:01;;;;;;;8.65;4.80;;;1.00;99.90;;;;;;5005371;28;20346;-71
2023/12/07 05:10:27;;;;;;;8.57;3.97;;;1.00;99.90;;;;;;4998846;28;20117;-72
2023/12/07 05:12:52;;;;;;;11.68;4.65;;;1.00;99.90;;;;;;5005892;28;20038;-72
2023/12/07 05:15:21;;;;;;;6.43;4.00;;;1.00;99.90;;;;;;5007742;28;20025;-72
2023/12/07 05:17:52;;;;;;;8.27;4.50;;;1.00;99.90;;;;;;5007466;28;20029;-72
2023/12/07 05:20:22;;;;;;;7.68;4.00;;;0.90;99.90;;;;;;5011496;28;20468;-72
2023/12/07 05:22:48;;;;;;;7.00;3.95;;;0.90;99.90;;;;;;5006844;28;20022;-72
2023/12/07 05:25:16;;;;;;;10.02;3.80;;;0.90;99.90;;;;;;5013475;28;20519;-72
2023/12/07 05:27:42;;;;;;;6.88;3.65;;;0.90;99.90;;;;;;4989405;28;20026;-72
2023/12/07 05:30:09;;;;;;;8.55;4.15;;;0.90;99.90;;;;;;5004590;28;20050;-72
2023/12/07 05:32:37;;;;;;;8.45;4.90;;;0.90;99.90;;;;;;5001683;28;20062;-71
2023/12/07 05:35:03;;;;;;;8.77;4.20;;;0.90;99.90;;;;;;5004552;28;20034;-71
2023/12/07 05:37:35;;;;;;;9.38;5.15;;;0.90;99.90;;;;;;5003346;28;20452;-71
2023/12/07 05:40:12;;;;;;;11.48;5.32;;;0.80;99.90;;;;;;5006521;28;20103;-71
2023/12/07 05:42:38;;;;;;;8.63;4.25;;;0.80;99.90;;;;;;5003518;28;20143;-71
2023/12/07 05:45:04;;;;;;;9.45;4.60;;;0.80;99.90;;;;;;5001170;28;20424;-72
2023/12/07 05:47:30;;;;;;;7.60;4.55;;;0.80;99.90;;;;;;5005930;28;20034;-71
2023/12/07 05:49:58;;;;;;;9.23;4.80;;;0.80;99.90;;;;;;5009068;28;20099;-72
2023/12/07 05:52:26;;;;;;;10.82;5.53;;;0.70;99.90;;;;;;5006262;28;20025;-71
2023/12/07 05:54:58;;;;;;;11.27;5.20;;;0.70;99.90;;;;;;5005908;28;20468;-71
2023/12/07 05:57:23;;;;;;;8.27;4.28;;;0.70;99.90;;;;;;5008066;28;20030;-71
2023/12/07 05:59:58;;;;;;;10.27;5.63;;;0.70;99.90;;;;;;5003255;28;20108;-71
2023/12/07 06:02:24;;;;;;;9.30;4.80;;;0.60;99.90;;;;;;5002880;28;20075;-71
2023/12/07 06:04:56;;;;;;;7.72;4.53;;;0.70;99.90;;;;;;5008445;28;20029;-71
2023/12/07 06:07:22;;;;;;;9.60;4.38;;;0.60;99.90;;;;;;5010999;28;20033;-71
2023/12/07 06:09:53;;;;;;;8.65;4.15;;;0.60;99.90;;;;;;5000371;28;20034;-71
2023/12/07 06:12:28;;;;;;;9.77;4.90;;;0.60;99.90;;;;;;4989879;28;20025;-71
2023/12/07 06:14:59;;;;;;;7.88;4.47;;;0.60;99.90;;;;;;5003717;28;20030;-71
2023/12/07 06:17:28;;;;;;;6.68;3.80;;;0.60;99.90;;;;;;5005710;28;20030;-71
2023/12/07 06:19:53;;;;;;;8.32;4.22;;;0.60;99.90;;;;;;5010189;28;20046;-71
2023/12/07 06:22:20;;;;;;;9.50;4.10;;;0.60;99.90;;;;;;5006861;28;20053;-73
2023/12/07 06:24:52;;;;;;;11.90;4.90;;;0.60;99.90;;;;;;5006190;28;20034;-72
2023/12/07 06:27:20;;;;;;;12.20;5.53;;;0.60;99.90;;;;;;5003303;28;20219;-72
2023/12/07 06:29:55;;;;;;;10.55;4.82;;;0.50;99.90;;;;;;4991642;28;20030;-71
2023/12/07 06:32:20;;;;;;;11.43;5.10;;;0.50;99.90;;;;;;5006447;28;20036;-72
2023/12/07 06:34:52;;;;;;;7.50;4.53;;;0.50;99.90;;;;;;4992549;28;20042;-71
2023/12/07 06:37:21;;;;;;;7.15;3.92;;;0.50;99.90;;;;;;5011022;28;20045;-71
2023/12/07 06:39:48;;;;;;;11.20;4.57;;;0.40;99.90;;;;;;5011161;28;20029;-72
2023/12/07 06:42:14;;;;;;;10.52;4.72;;;0.40;99.90;;;;;;5009962;28;20033;-72
2023/12/07 06:45:02;;;;;;;10.82;5.13;;;0.40;99.90;;;;;;5011880;28;20042;-72
2023/12/07 06:47:27;;;;;;;8.90;4.65;;;0.40;99.90;;;;;;5008757;28;20034;-71
2023/12/07 06:49:59;;;;;;;10.73;4.97;;;0.40;99.90;;;;;;5009604;28;20032;-73
2023/12/07 06:52:24;;;;;;;9.80;5.22;;;0.30;99.90;;;;;;5007077;28;20045;-72
2023/12/07 06:54:50;;;;;;;9.98;4.85;;;0.30;99.90;;;;;;5010165;28;20089;-71
2023/12/07 06:57:21;;;;;;;10.48;5.47;;;0.30;99.90;;;;;;5008109;28;20485;-70
2023/12/07 06:59:50;;;;;;;9.48;5.10;;;0.30;99.90;;;;;;5017112;28;20082;-71
2023/12/07 07:02:16;;;;;;;11.30;4.68;;;0.30;99.90;;;;;;5011622;28;20026;-71
2023/12/07 07:04:44;;;;;;;11.23;5.15;;;0.20;99.90;;;;;;5015635;28;20551;-71
2023/12/07 07:07:22;;;;;;;17.02;6.43;;;0.20;99.90;;;;;;4999782;28;20026;-71
2023/12/07 07:09:51;;;;;;;17.80;5.93;;;0.20;99.90;;;;;;4999686;28;20026;-70
2023/12/07 07:12:19;;;;;;;9.60;4.93;;;0.20;99.90;;;;;;4994987;28;20393;-71
2023/12/07 07:14:45;;;;;;;10.95;4.75;;;0.20;99.90;;;;;;5015648;28;20545;-69
2023/12/07 07:17:13;;;;;;;10.75;4.90;;;0.20;99.90;;;;;;5007604;28;20109;-69
2023/12/07 07:19:39;;;;;;;11.68;4.93;;;0.20;99.90;;;;;;4995373;28;20026;-69
2023/12/07 07:22:04;;;;;;;13.52;4.88;;;0.20;99.90;;;;;;5012353;28;20105;-69
2023/12/07 07:24:45;;;;;;;9.63;5.05;;;0.20;99.90;;;;;;5011524;28;20554;-71
2023/12/07 07:27:10;;;;;;;11.25;5.05;;;0.20;99.90;;;;;;5008691;28;20528;-71
2023/12/07 07:29:36;;;;;;;8.48;4.25;;;0.20;99.90;;;;;;4996182;28;20105;-69
2023/12/07 07:32:05;;;;;;;11.32;4.97;;;0.20;99.90;;;;;;5012127;28;20554;-69
2023/12/07 07:34:31;;;;;;;8.98;4.50;;;0.20;99.90;;;;;;5007047;28;20392;-70
2023/12/07 07:36:59;;;;;;;9.15;4.10;;;0.20;99.90;;;;;;5013989;28;20026;-69
2023/12/07 07:39:31;;;;;;;8.35;4.30;;;0.20;99.90;;;;;;5015665;28;20582;-69
2023/12/07 07:42:03;;;;;;;9.23;4.57;;;0.20;99.90;;;;;;4993661;28;20436;-69
2023/12/07 07:44:28;;;;;;;9.02;4.40;;;0.20;99.90;;;;;;5010670;28;20101;-69
2023/12/07 07:46:54;;;;;;;8.88;4.90;;;0.20;99.90;;;;;;5013459;28;20057;-69
2023/12/07 07:49:26;;;;;;;9.57;4.43;;;0.20;99.90;;;;;;5017643;28;20030;-69
2023/12/07 07:51:54;;;;;;;8.15;4.18;;;0.20;99.90;;;;;;5014308;28;20030;-69
2023/12/07 07:54:22;;;;;;;8.55;4.65;;;0.30;99.90;;;;;;5013243;28;20045;-69
2023/12/07 07:56:48;;;;;;;7.18;3.72;;;0.30;99.90;;;;;;5003230;28;20528;-68
2023/12/07 07:59:14;;;;;;;8.45;4.40;;;0.30;99.90;;;;;;5010665;28;20037;-69
2023/12/07 08:01:46;;;;;;;7.75;4.47;;;0.30;99.90;;;;;;5013497;28;20010;-69
2023/12/07 08:04:12;;;;;;;10.55;4.18;;;0.30;99.90;;;;;;5000322;28;20427;-71
2023/12/07 08:06:38;;;;;;;8.48;4.07;;;0.30;99.90;;;;;;5012865;28;20041;-72
2023/12/07 08:09:04;;;;;;;8.10;5.15;;;0.30;99.90;;;;;;5008132;28;20092;-71
2023/12/07 08:11:29;;;;;;;11.85;5.82;;;0.30;99.90;;;;;;5002048;28;20025;-69
2023/12/07 08:13:55;;;;;;;11.52;6.43;;;0.40;99.90;;;;;;5012820;28;20017;-69
2023/12/07 08:16:21;;;;;;;11.60;5.32;;;0.40;99.90;;;;;;5011811;28;20026;-69
2023/12/07 08:18:47;;;;;;;8.63;4.80;;;0.40;99.90;;;;;;5003020;28;20420;-69
2023/12/07 08:21:22;;;;;;;8.75;4.55;;;0.40;99.90;;;;;;5014912;28;20022;-69
2023/12/07 08:23:48;;;;;;;10.40;4.90;;;0.40;99.90;;;;;;5009816;28;20565;-69
2023/12/07 08:26:14;;;;;;;10.48;4.63;;;0.50;99.90;;;;;;5004717;28;20114;-69
2023/12/07 08:28:46;;;;;;;10.23;4.78;;;0.50;99.90;;;;;;5007097;28;20048;-69
2023/12/07 08:31:12;;;;;;;12.55;5.28;;;0.50;99.90;;;;;;5010066;28;20026;-69
2023/12/07 08:33:39;;;;;;;10.57;5.30;;;0.60;99.90;;;;;;5007697;28;20045;-69
2023/12/07 08:36:05;;;;;;;11.73;5.68;;;0.60;99.90;;;;;;5009875;28;20026;-70
2023/12/07 08:38:34;;;;;;;12.18;6.13;;;0.60;99.90;;;;;;5003111;28;20025;-75
2023/12/07 08:40:59;;;;;;;14.55;5.60;;;0.60;99.90;;;;;;5009983;28;20120;-74
2023/12/07 08:43:25;;;;;;;13.32;5.95;;;0.70;99.90;;;;;;5003429;28;20160;-74
2023/12/07 08:45:54;;;;;;;11.93;6.18;;;0.80;99.90;;;;;;5005136;28;20117;-74
2023/12/07 08:48:20;;;;;;;13.35;5.85;;;0.90;99.90;;;;;;5009531;28;20032;-74
2023/12/07 08:50:46;;;;;;;11.02;5.25;;;1.00;99.90;;;;;;5008820;28;20027;-71
2023/12/07 08:53:12;;;;;;;13.93;6.50;;;1.00;99.90;;;;;;5007167;28;20041;-70
2023/12/07 08:55:37;;;;;;;11.48;5.55;;;1.10;99.90;;;;;;5009832;28;20030;-70
2023/12/07 08:58:06;;;;;;;14.48;6.03;;;1.10;99.90;;;;;;5010928;28;20030;-70
2023/12/07 09:00:32;;;;;;;11.73;5.18;;;1.10;99.90;;;;;;5005689;28;20022;-69
2023/12/07 09:02:58;;;;;;;11.77;5.05;;;1.10;99.90;;;;;;5009076;28;20067;-69
2023/12/07 09:05:25;;;;;;;16.60;6.97;;;1.20;99.90;;;;;;5004800;28;20477;-70
2023/12/07 09:07:52;;;;;;;17.00;9.13;;;1.20;99.90;;;;;;5004475;28;20494;-70
2023/12/07 09:10:19;;;;;;;20.20;9.13;;;1.20;99.90;;;;;;5006342;28;20539;-70
2023/12/07 09:12:44;;;;;;;16.88;7.28;;;1.20;99.90;;;;;;5001429;28;20376;-70
2023/12/07 09:15:11;;;;;;;15.48;6.55;;;1.20;99.90;;;;;;5004514;28;20040;-70
2023/12/07 09:17:38;;;;;;;12.52;7.25;;;1.30;99.90;;;;;;5007344;28;20637;-70
2023/12/07 09:20:17;;;;;;;18.88;8.32;;;1.30;99.90;;;;;;5004301;28;20026;-70
2023/12/07 09:22:46;;;;;;;16.13;8.38;;;1.40;99.90;;;;;;4999840;28;20118;-69
2023/12/07 09:25:13;;;;;;;16.35;7.57;;;1.40;99.90;;;;;;5003912;28;20489;-69
2023/12/07 09:27:41;;;;;;;16.45;7.97;;;1.40;99.90;;;;;;5001369;28;20534;-70
2023/12/07 09:30:10;;;;;;;15.20;8.18;;;1.40;99.90;;;;;;5005206;28;20065;-68
2023/12/07 09:32:42;;;;;;;15.98;8.77;;;1.50;99.90;;;;;;5007207;28;20459;-70
2023/12/07 09:35:18;;;;;;;12.55;8.23;;;1.50;99.90;;;;;;5008118;28;20124;-69
2023/12/07 09:37:45;;;;;;;14.98;8.25;;;1.60;99.90;;;;;;5005420;28;20480;-69
2023/12/07 09:40:20;;;;;;;13.43;8.45;;;1.60;99.90;;;;;;5009832;28;20303;-71
2023/12/07 09:42:49;;;;;;;18.48;9.48;;;1.60;99.90;;;;;;5004791;28;20054;-71
2023/12/07 09:47:43;;;;;;;17.13;7.88;;;1.70;99.90;;;;;;4966450;28;20046;-72
2023/12/07 09:50:09;;;;;;;16.48;8.15;;;1.70;99.90;;;;;;4965248;28;20063;-72
2023/12/07 09:52:36;;;;;;;13.93;8.00;;;1.70;99.90;;;;;;4962811;28;20035;-72
2023/12/07 09:55:03;;;;;;;16.17;8.13;;;1.80;99.90;;;;;;4969498;28;20076;-71
2023/12/07 09:57:29;;;;;;;14.90;8.00;;;1.80;99.90;;;;;;4972852;28;20027;-71
2023/12/07 09:59:55;;;;;;;19.20;9.55;;;1.80;99.90;;;;;;4968857;28;20027;-71
2023/12/07 10:02:22;;;;;;;20.92;9.23;;;1.80;99.90;;;;;;4967124;28;20496;-72
2023/12/07 10:04:48;;;;;;;19.60;9.85;;;1.90;99.90;;;;;;4970653;28;20484;-71
2023/12/07 10:07:34;;;;;;;20.60;8.45;;;1.90;99.90;;;;;;4966489;28;20498;-72
2023/12/07 10:10:00;;;;;;;17.80;9.10;;;1.90;99.90;;;;;;4969644;28;20023;-71
2023/12/07 10:12:25;;;;;;;21.33;9.77;;;2.00;99.90;;;;;;4969370;28;20046;-72
2023/12/07 10:14:51;;;;;;;21.52;9.43;;;2.00;99.90;;;;;;4969888;28;20389;-71
2023/12/07 10:17:16;;;;;;;23.13;9.43;;;2.10;99.90;;;;;;4969401;28;20031;-71
2023/12/07 10:19:42;;;;;;;18.48;9.45;;;2.10;99.90;;;;;;4968390;28;20401;-71
2023/12/07 10:22:15;;;;;;;17.65;10.07;;;2.10;99.90;;;;;;4969575;28;20035;-71
2023/12/07 10:24:47;;;;;;;20.07;9.93;;;2.20;99.90;;;;;;4968743;28;20557;-70
2023/12/07 10:27:13;;;;;;;18.15;9.48;;;2.20;99.90;;;;;;4970265;28;20038;-71
2023/12/07 10:29:39;;;;;;;19.50;9.57;;;2.20;99.90;;;;;;4969897;28;20434;-71
2023/12/07 10:32:10;;;;;;;20.95;9.40;;;2.30;99.90;;;;;;4965637;28;20035;-71
2023/12/07 10:34:37;;;;;;;16.70;8.77;;;2.30;99.90;;;;;;4967264;28;20110;-71
2023/12/07 10:37:04;;;;;;;21.50;9.48;;;2.40;99.90;;;;;;4964665;28;20169;-71
2023/12/07 10:39:30;;;;;;;19.27;9.25;;;2.40;99.90;;;;;;4969637;28;20477;-71
2023/12/07 10:42:02;;;;;;;15.35;8.68;;;2.50;99.90;;;;;;4970850;28;20027;-71
2023/12/07 10:44:28;;;;;;;17.58;10.05;;;2.50;99.90;;;;;;4970647;28;20035;-71
2023/12/07 10:46:55;;;;;;;17.08;8.98;;;2.50;99.90;;;;;;4951257;28;20188;-71
2023/12/07 10:49:26;;;;;;;21.35;9.45;;;2.60;99.90;;;;;;4973355;28;20038;-71
2023/12/07 10:52:13;;;;;;;19.35;9.27;;;2.60;99.90;;;;;;4969140;28;20081;-72
2023/12/07 10:55:02;;;;;;;20.58;9.02;;;2.70;99.90;;;;;;4966896;28;20058;-72
2023/12/07 10:57:29;;;;;;;18.88;9.38;;;2.80;99.90;;;;;;4953847;28;20030;-72
2023/12/07 10:59:57;;;;;;;14.48;8.40;;;2.80;99.90;;;;;;4968292;28;20029;-73
2023/12/07 11:02:22;;;;;;;13.30;8.25;;;2.90;99.90;;;;;;4967464;28;20077;-71
2023/12/07 11:04:50;;;;;;;16.55;8.85;;;2.90;99.90;;;;;;4969459;28;20030;-72
2023/12/07 11:07:20;;;;;;;14.93;8.95;;;2.90;99.90;;;;;;4952146;28;20037;-71
2023/12/07 11:10:03;;;;;;;14.25;7.20;;;3.00;99.90;;;;;;4966133;28;20564;-71
2023/12/07 11:12:38;;;;;;;18.15;9.98;;;3.00;99.90;;;;;;4967116;28;20038;-72
2023/12/07 11:15:05;;;;;;;16.60;8.20;;;3.10;99.90;;;;;;4965517;28;20121;-71
2023/12/07 11:17:49;;;;;;;11.60;7.30;;;3.10;99.90;;;;;;4968318;28;20031;-71
2023/12/07 11:20:19;;;;;;;9.82;4.72;;;3.10;99.90;;;;;;4971806;28;20392;-71
2023/12/07 11:22:48;;;;;;;7.97;5.15;;;3.20;99.90;;;;;;4974007;28;20556;-71
2023/12/07 11:25:17;;;;;;;6.00;2.83;;;3.20;99.90;;;;;;4972812;28;20041;-71
2023/12/07 11:27:47;;;;;;;4.28;2.70;;;3.30;99.90;;;;;;4974791;28;20047;-71
2023/12/07 11:30:14;;;;;;;6.30;2.90;;;3.30;99.90;;;;;;4970357;28;20032;-70
2023/12/07 11:32:44;;;;;;;4.90;1.80;;;3.40;99.90;;;;;;4971978;28;20397;-71
2023/12/07 11:35:12;;;;;;;4.20;2.15;;;3.50;99.90;;;;;;4973034;28;20485;-70
2023/12/07 11:38:11;;;;;;;5.10;2.45;;;3.50;99.90;;;;;;4971547;28;20019;-71
2023/12/07 11:40:41;;;;;;;4.75;2.30;;;3.50;99.90;;;;;;4973743;28;20023;-71
2023/12/07 11:43:07;;;;;;;3.95;2.08;;;3.60;99.90;;;;;;4975170;28;20320;-71
2023/12/07 11:45:48;;;;;;;6.78;2.47;;;3.60;99.90;;;;;;4975894;28;20042;-71
2023/12/07 11:48:18;;;;;;;9.18;2.38;;;3.60;99.90;;;;;;4973041;28;20447;-71
2023/12/07 11:50:58;;;;;;;5.97;2.92;;;3.70;99.90;;;;;;4980568;28;20014;-71
2023/12/07 11:53:29;;;;;;;9.15;2.97;;;3.70;99.90;;;;;;4972987;28;20558;-71
2023/12/07 11:55:57;;;;;;;6.13;3.08;;;3.70;99.90;;;;;;4972826;28;20027;-71
2023/12/07 11:58:23;;;;;;;8.98;2.63;;;3.80;99.90;;;;;;4975979;28;20076;-71
2023/12/07 12:00:52;;;;;;;6.10;2.55;;;3.80;99.90;;;;;;4975003;28;20030;-71
2023/12/07 12:03:19;;;;;;;4.97;2.78;;;3.90;99.90;;;;;;4974079;28;20031;-71
2023/12/07 12:05:51;;;;;;;4.88;2.50;;;3.90;99.90;;;;;;4973393;28;20065;-71
2023/12/07 12:08:18;;;;;;;8.32;2.90;;;3.90;99.90;;;;;;4974805;28;20018;-71
2023/12/07 12:10:45;;;;;;;4.78;3.10;;;3.90;99.90;;;;;;4972614;28;20457;-71
2023/12/07 12:13:11;;;;;;;10.07;2.97;;;3.90;99.90;;;;;;4972098;28;20213;-71
2023/12/07 12:15:43;;;;;;;7.15;2.45;;;3.90;99.90;;;;;;4972672;28;20460;-71
2023/12/07 12:18:09;;;;;;;3.42;1.40;;;3.90;99.90;;;;;;4973599;28;20171;-71
2023/12/07 12:20:35;;;;;;;9.13;1.40;;;3.90;99.90;;;;;;4958029;28;20166;-71
2023/12/07 12:23:04;;;;;;;4.13;1.60;;;4.00;99.90;;;;;;4973289;28;20034;-72
2023/12/07 12:25:31;;;;;;;5.28;1.77;;;4.10;99.90;;;;;;4974319;28;20030;-72
2023/12/07 12:28:04;;;;;;;3.42;1.63;;;4.30;99.90;;;;;;4974248;28;20109;-71
2023/12/07 12:30:31;;;;;;;7.35;2.00;;;4.60;99.90;;;;;;4971638;28;20035;-71
2023/12/07 12:32:57;;;;;;;4.32;1.80;;;4.80;99.90;;;;;;4969197;28;20445;-72
2023/12/07 12:35:23;;;;;;;1.73;1.15;;;5.00;99.90;;;;;;4966626;28;20493;-71
2023/12/07 12:37:49;;;;;;;2.95;1.50;;;5.20;99.90;;;;;;4947530;28;20154;-73
2023/12/07 12:40:20;;;;;;;4.25;1.58;;;5.40;99.50;;;;;;4970991;28;20042;-73
2023/12/07 12:42:50;;;;;;;4.03;1.52;;;5.50;99.00;;;;;;4975483;28;20880;-72
2023/12/07 12:45:20;;;;;;;3.47;1.35;;;5.50;99.30;;;;;;4965003;28;20022;-71
2023/12/07 12:47:47;;;;;;;3.78;1.60;;;5.60;98.40;;;;;;4968386;28;20101;-70
2023/12/07 12:50:37;;;;;;;4.30;1.73;;;5.70;98.20;;;;;;4972747;28;20031;-72
2023/12/07 12:53:10;;;;;;;3.63;1.55;;;5.60;97.70;;;;;;4973150;28;20082;-71
2023/12/07 12:55:37;;;;;;;2.28;1.40;;;5.50;98.30;;;;;;4974773;28;20035;-71
2023/12/07 12:58:07;;;;;;;4.45;1.40;;;5.40;98.20;;;;;;4970097;28;20058;-70
2023/12/07 13:00:34;;;;;;;3.35;1.83;;;5.50;98.20;;;;;;4967681;28;20018;-70